Skip Navigation Links Skip Navigation Links

Current Weather

Sanford-Lee County Rgnl, Sanford, N.C.

For information only: do not use for flight planning or navigation.
Latest weather
Observation time Friday, December 4, 2020 3:15 AM EST
Local time Friday, December 4, 2020 3:23 AM EST
Flight conditions Visual Meteorological Conditions
Winds
Wind speed calm
Visibility 10 mi.
Sky condition
Ceiling unlimited
Cloud layer scattered clouds 12,000 ft.
Temperature 35°F
Dewpoint 34°F
Altimeter 30.22 in.Hg
Derived measurements
Relative humidity 95%
Wind chill 35°F
Density altitude -1618 ft.
Remarks
Fully automated report.
Automated weather observing station with precipitation discriminator.
METAR KTTA 040815Z AUTO 00000KT 10SM SCT120 02/01 A3022 RMK AO2 T00170010

Settings

Location code

InnerDrive.Weather 4.0.6770.0 Release CLR 4.0.30319.42000
Copyright ©2018 Inner Drive Technology. All rights reserved. Portions Copyright ©1986-2018 David Braverman.

Find weather

Site navigation


Skip Navigation Links

Place info

Page info

PayPal - The safer, easier way to pay online!

Return home.

Copyright ©2020 Inner Drive Technology. Purveyors of fine, hand-crafted computer software. Page printed 2020-12-04T08:23:39 UTC.